Time;durP1;ratioP1;P1;durP2;ratioP2;P2;SDS_P1;SDS_P2;PMS_P1;PMS_P2;Temp;Humidity;BMP_temperature;BMP_pressure;BME280_temperature;BME280_humidity;BME280_pressure;Samples;Min_cycle;Max_cycle;Signal;HPM_P1;HPM_P2
2021/04/15 00:01:03;;;;;;;;;;;5.10;87.20;;;;;;5114767;28;20051;-67
2021/04/15 00:03:31;;;;;;;4.37;1.83;;;4.90;87.10;;;;;;5114943;28;19919;-67
2021/04/15 00:06:00;;;;;;;2.13;1.60;;;4.80;87.70;;;;;;5113377;28;20297;-67
2021/04/15 00:08:25;;;;;;;3.07;1.77;;;4.80;88.00;;;;;;5114649;28;20457;-66
2021/04/15 00:10:55;;;;;;;2.67;1.93;;;4.60;88.30;;;;;;5114197;28;20859;-66
2021/04/15 00:13:30;;;;;;;4.80;1.60;;;4.60;88.80;;;;;;5113715;28;20050;-66
2021/04/15 00:15:56;;;;;;;2.60;1.60;;;4.50;88.90;;;;;;5114180;28;20299;-66
2021/04/15 00:18:22;;;;;;;3.80;1.97;;;4.50;88.90;;;;;;5114624;28;20357;-66
2021/04/15 00:20:49;;;;;;;3.17;2.20;;;4.50;89.10;;;;;;5113371;28;20860;-66
2021/04/15 00:23:15;;;;;;;2.70;1.83;;;4.40;89.90;;;;;;5113784;28;20306;-66
2021/04/15 00:25:41;;;;;;;3.30;2.20;;;4.40;89.10;;;;;;5113941;28;20309;-66
2021/04/15 00:28:08;;;;;;;3.10;2.00;;;4.40;89.00;;;;;;5113465;28;20298;-66
2021/04/15 00:30:35;;;;;;;2.80;2.10;;;4.40;89.00;;;;;;5114355;28;20055;-66
2021/04/15 00:33:01;;;;;;;3.83;2.37;;;4.30;89.20;;;;;;5113663;28;20709;-66
2021/04/15 00:35:26;;;;;;;4.73;2.73;;;4.20;89.40;;;;;;5113322;28;20833;-66
2021/04/15 00:37:53;;;;;;;3.67;2.10;;;4.30;89.50;;;;;;5113670;28;20290;-66
2021/04/15 00:40:21;;;;;;;4.07;2.50;;;4.20;89.50;;;;;;5113796;28;20312;-66
2021/04/15 00:42:47;;;;;;;4.23;2.20;;;4.20;89.40;;;;;;5113275;28;20100;-66
2021/04/15 00:45:24;;;;;;;3.73;2.93;;;4.20;89.20;;;;;;5113713;28;20298;-65
2021/04/15 00:48:05;;;;;;;5.00;2.87;;;4.20;89.30;;;;;;5112946;28;20063;-66
2021/04/15 00:50:39;;;;;;;5.77;2.80;;;4.20;89.30;;;;;;5113833;28;20297;-66
2021/04/15 00:53:11;;;;;;;5.93;2.37;;;4.20;89.30;;;;;;5113268;28;20370;-66
2021/04/15 00:55:44;;;;;;;2.97;2.00;;;4.20;89.20;;;;;;5112726;28;20293;-66
2021/04/15 00:58:10;;;;;;;3.50;2.00;;;4.10;89.10;;;;;;5113409;28;20304;-66
2021/04/15 01:00:36;;;;;;;5.30;2.77;;;4.10;89.10;;;;;;5113682;28;20059;-66
2021/04/15 01:03:02;;;;;;;6.67;2.40;;;4.00;89.00;;;;;;5112302;28;20082;-66
2021/04/15 01:05:33;;;;;;;5.17;3.03;;;4.00;89.00;;;;;;5113368;28;20052;-66
2021/04/15 01:07:59;;;;;;;4.37;2.40;;;3.90;89.10;;;;;;5112843;28;20646;-66
2021/04/15 01:10:31;;;;;;;3.23;2.23;;;3.90;89.20;;;;;;5112743;28;20479;-65
2021/04/15 01:13:23;;;;;;;3.33;2.27;;;3.90;89.10;;;;;;5112649;28;20658;-66
2021/04/15 01:16:31;;;;;;;4.10;2.43;;;3.80;89.10;;;;;;5112953;28;20327;-66
2021/04/15 01:19:23;;;;;;;2.77;1.67;;;3.70;89.20;;;;;;5112702;28;20303;-66
2021/04/15 01:22:01;;;;;;;2.22;1.80;;;3.60;89.30;;;;;;5112680;28;20297;-66
2021/04/15 01:24:46;;;;;;;2.30;1.87;;;3.60;89.40;;;;;;5112627;28;20058;-66
2021/04/15 01:27:25;;;;;;;1.77;1.40;;;3.60;89.40;;;;;;5112891;28;20290;-66
2021/04/15 01:30:15;;;;;;;2.77;2.10;;;3.50;89.40;;;;;;5112812;28;20304;-66
2021/04/15 01:32:56;;;;;;;5.00;2.50;;;3.50;89.50;;;;;;5112751;28;20338;-66
2021/04/15 01:35:30;;;;;;;4.27;1.90;;;3.40;89.50;;;;;;5113049;28;20301;-66
2021/04/15 01:38:21;;;;;;;3.23;1.90;;;3.40;89.50;;;;;;5111740;28;20354;-66
2021/04/15 01:41:03;;;;;;;2.10;1.67;;;3.40;89.60;;;;;;5112545;28;20855;-67
2021/04/15 01:43:32;;;;;;;2.80;2.10;;;3.40;89.60;;;;;;5112969;28;20300;-66
2021/04/15 01:45:58;;;;;;;3.07;2.03;;;3.30;89.50;;;;;;5111324;28;20513;-66
2021/04/15 01:48:34;;;;;;;2.77;1.67;;;3.40;89.50;;;;;;5112796;28;20297;-66
2021/04/15 01:51:12;;;;;;;4.53;2.07;;;3.30;89.40;;;;;;5111962;28;20384;-66
2021/04/15 01:53:47;;;;;;;3.50;2.40;;;3.30;89.40;;;;;;5112586;28;20392;-66
2021/04/15 01:56:19;;;;;;;4.13;2.23;;;3.30;89.70;;;;;;5112246;28;20770;-66
2021/04/15 01:58:54;;;;;;;4.20;2.30;;;3.30;89.50;;;;;;5111560;28;20358;-66
2021/04/15 02:01:23;;;;;;;2.27;1.90;;;3.30;89.50;;;;;;5112515;28;20304;-67
2021/04/15 02:03:52;;;;;;;5.20;2.60;;;3.30;89.60;;;;;;5112296;28;20298;-67
2021/04/15 02:06:27;;;;;;;3.63;2.40;;;3.20;89.60;;;;;;5111551;28;20325;-66
2021/04/15 02:09:09;;;;;;;5.77;2.70;;;3.20;89.60;;;;;;5112172;28;20343;-67
2021/04/15 02:12:02;;;;;;;5.57;2.70;;;3.20;89.60;;;;;;5096915;28;20317;-67
2021/04/15 02:15:03;;;;;;;4.10;2.67;;;3.20;89.70;;;;;;5111161;28;20309;-67
2021/04/15 02:17:35;;;;;;;4.47;2.73;;;3.20;89.60;;;;;;5111656;28;20850;-67
2021/04/15 02:20:12;;;;;;;4.27;2.47;;;3.20;89.60;;;;;;5110925;28;20801;-66
2021/04/15 02:23:07;;;;;;;4.07;2.90;;;3.20;89.70;;;;;;5112073;28;20365;-67
2021/04/15 02:25:42;;;;;;;4.77;2.80;;;3.20;89.60;;;;;;5112325;28;20286;-67
2021/04/15 02:28:24;;;;;;;3.60;2.60;;;3.20;89.50;;;;;;5111152;28;20774;-67
2021/04/15 02:31:03;;;;;;;4.45;2.45;;;3.20;89.60;;;;;;5111798;28;20285;-67
2021/04/15 02:33:34;;;;;;;3.90;2.80;;;3.20;89.40;;;;;;5111530;28;20056;-66
2021/04/15 02:36:03;;;;;;;4.70;2.73;;;3.30;89.50;;;;;;5111611;28;20293;-66
2021/04/15 02:38:57;;;;;;;3.50;2.07;;;3.20;89.30;;;;;;5112009;28;20301;-66
2021/04/15 02:41:33;;;;;;;4.90;2.70;;;3.20;89.30;;;;;;5104758;28;20623;-66
2021/04/15 02:44:06;;;;;;;5.90;2.75;;;3.20;89.20;;;;;;5111540;28;20293;-66
2021/04/15 02:46:52;;;;;;;5.37;2.67;;;3.20;89.20;;;;;;5112162;28;20055;-66
2021/04/15 02:49:21;;;;;;;5.60;2.90;;;3.20;89.10;;;;;;5110807;28;20783;-66
2021/04/15 02:51:58;;;;;;;4.27;2.53;;;3.20;89.20;;;;;;5111618;28;20297;-66
2021/04/15 02:54:34;;;;;;;3.90;2.50;;;3.20;89.10;;;;;;5111316;28;20426;-66
2021/04/15 02:57:32;;;;;;;4.57;2.37;;;3.10;89.10;;;;;;5111245;28;20358;-66
2021/04/15 03:00:08;;;;;;;4.63;2.50;;;3.10;89.10;;;;;;5111087;28;20374;-66
2021/04/15 03:02:44;;;;;;;4.73;2.53;;;3.10;89.10;;;;;;5111289;28;20297;-65
2021/04/15 03:05:15;;;;;;;4.57;2.50;;;3.10;89.10;;;;;;5111368;28;20297;-66
2021/04/15 03:07:43;;;;;;;4.27;2.80;;;3.10;89.20;;;;;;5111634;28;20301;-65
2021/04/15 03:10:13;;;;;;;4.07;2.73;;;3.00;89.20;;;;;;5110472;28;20289;-66
2021/04/15 03:12:45;;;;;;;6.97;2.70;;;3.00;89.40;;;;;;5111929;28;20376;-66
2021/04/15 03:15:15;;;;;;;4.27;2.70;;;3.00;89.50;;;;;;5111691;28;20131;-67
2021/04/15 03:17:46;;;;;;;4.53;3.20;;;3.00;89.90;;;;;;5110832;28;20297;-66
2021/04/15 03:20:15;;;;;;;;;;;3.00;90.00;;;;;;5111669;28;20778;-67
2021/04/15 03:22:55;;;;;;;3.97;2.70;;;2.90;90.40;;;;;;5110365;28;19920;-67
2021/04/15 03:25:21;;;;;;;6.03;3.87;;;2.90;90.10;;;;;;5111732;28;20294;-66
2021/04/15 03:27:59;;;;;;;10.43;4.10;;;3.00;90.10;;;;;;5112468;28;20319;-66
2021/04/15 03:30:31;;;;;;;4.83;3.13;;;3.00;90.20;;;;;;5114530;28;20515;-66
2021/04/15 03:33:05;;;;;;;7.03;3.47;;;3.00;90.30;;;;;;5114565;28;20861;-66
2021/04/15 03:35:46;;;;;;;5.93;3.60;;;3.00;90.20;;;;;;5115181;28;20747;-66
2021/04/15 03:38:33;;;;;;;7.53;3.80;;;3.00;90.20;;;;;;5114290;28;20301;-66
2021/04/15 03:41:15;;;;;;;6.73;3.80;;;3.10;90.30;;;;;;5114768;28;20294;-66
2021/04/15 03:44:02;;;;;;;6.77;3.80;;;3.10;90.30;;;;;;5114234;28;20658;-67
2021/04/15 03:46:35;;;;;;;7.37;4.17;;;3.10;90.30;;;;;;5083131;28;20372;-67
2021/04/15 03:49:12;;;;;;;7.40;3.80;;;3.20;90.30;;;;;;5114604;28;20398;-66
2021/04/15 03:51:45;;;;;;;7.67;4.07;;;3.20;90.30;;;;;;5114160;28;20380;-67
2021/04/15 03:54:14;;;;;;;7.60;4.23;;;3.30;90.30;;;;;;5114699;28;20306;-67
2021/04/15 03:56:42;;;;;;;7.53;3.73;;;3.30;90.30;;;;;;5114828;28;20290;-67
2021/04/15 03:59:17;;;;;;;9.93;4.73;;;3.40;90.30;;;;;;5113756;28;20423;-66
2021/04/15 04:01:48;;;;;;;7.13;4.00;;;3.40;90.30;;;;;;5114627;28;20296;-67
2021/04/15 04:04:35;;;;;;;6.70;4.43;;;3.50;90.30;;;;;;5114451;28;20789;-67
2021/04/15 04:07:05;;;;;;;8.50;4.57;;;3.60;90.30;;;;;;5113253;28;20833;-67
2021/04/15 04:09:39;;;;;;;8.30;4.40;;;3.60;90.30;;;;;;5114795;28;20316;-67
2021/04/15 04:12:10;;;;;;;5.00;3.47;;;3.70;90.30;;;;;;5113030;28;20393;-67
2021/04/15 04:14:45;;;;;;;6.77;4.87;;;3.70;90.30;;;;;;5114316;28;20341;-67
2021/04/15 04:17:15;;;;;;;7.43;4.23;;;3.80;90.30;;;;;;5114037;28;20690;-66
2021/04/15 04:19:46;;;;;;;7.43;3.90;;;3.80;90.30;;;;;;5113481;28;20297;-67
2021/04/15 04:22:56;;;;;;;11.77;5.32;;;3.80;90.30;;;;;;5113911;28;20350;-67
2021/04/15 04:25:25;;;;;;;9.67;4.97;;;3.90;90.20;;;;;;5051421;28;20049;-67
2021/04/15 04:27:59;;;;;;;9.53;5.03;;;3.90;90.20;;;;;;5050500;28;20829;-67
2021/04/15 04:30:53;;;;;;;7.37;3.93;;;3.90;90.10;;;;;;5085394;28;20370;-67
2021/04/15 04:33:23;;;;;;;10.03;5.10;;;3.90;90.10;;;;;;5113004;28;20685;-67
2021/04/15 04:35:50;;;;;;;13.17;4.40;;;3.90;90.10;;;;;;5114011;28;20294;-67
2021/04/15 04:38:21;;;;;;;7.80;4.77;;;3.90;90.10;;;;;;5113670;28;20666;-66
2021/04/15 04:40:52;;;;;;;10.40;5.47;;;4.00;90.10;;;;;;5112338;28;20300;-66
2021/04/15 04:43:42;;;;;;;8.83;4.43;;;3.90;90.10;;;;;;5113730;28;20293;-67
2021/04/15 04:46:33;;;;;;;9.00;4.90;;;4.00;90.10;;;;;;5113496;28;20742;-66
2021/04/15 04:49:04;;;;;;;9.20;5.68;;;4.00;90.10;;;;;;5112141;28;20293;-66
2021/04/15 04:51:52;;;;;;;10.40;5.63;;;4.00;90.10;;;;;;5114006;28;20086;-67
2021/04/15 04:54:20;;;;;;;10.37;6.30;;;4.00;90.10;;;;;;5112629;28;20052;-67
2021/04/15 04:57:23;;;;;;;10.10;5.90;;;4.00;90.20;;;;;;5113531;28;20289;-67
2021/04/15 05:00:21;;;;;;;8.03;4.73;;;4.00;90.10;;;;;;5111042;28;20289;-67
2021/04/15 05:02:54;;;;;;;10.70;5.47;;;4.00;90.10;;;;;;5098849;28;20430;-67
2021/04/15 05:05:29;;;;;;;11.73;5.47;;;4.10;90.10;;;;;;5113635;28;20297;-67
2021/04/15 05:08:19;;;;;;;12.47;6.43;;;4.10;90.10;;;;;;5113069;28;20297;-67
2021/04/15 05:10:46;;;;;;;11.10;6.17;;;4.10;90.10;;;;;;5113054;28;20380;-67
2021/04/15 05:13:18;;;;;;;11.60;6.60;;;4.10;90.10;;;;;;5112945;28;20469;-67
2021/04/15 05:15:44;;;;;;;9.47;6.67;;;4.20;90.10;;;;;;5112237;28;20758;-67
2021/04/15 05:18:14;;;;;;;11.33;6.70;;;4.20;90.10;;;;;;5113009;28;20312;-67
2021/04/15 05:20:42;;;;;;;12.50;6.72;;;4.10;90.00;;;;;;5112856;28;20301;-67
2021/04/15 05:23:20;;;;;;;12.70;6.40;;;4.20;90.10;;;;;;5111709;28;20062;-67
2021/04/15 05:26:01;;;;;;;10.20;6.07;;;4.20;90.10;;;;;;5112530;28;20778;-67
2021/04/15 05:28:30;;;;;;;9.93;6.27;;;4.30;90.00;;;;;;5113229;28;20293;-67
2021/04/15 05:30:57;;;;;;;8.83;6.03;;;4.30;90.00;;;;;;5111564;28;20305;-67
2021/04/15 05:33:26;;;;;;;8.03;5.50;;;4.30;89.90;;;;;;5112871;28;20349;-67
2021/04/15 05:36:21;;;;;;;9.67;5.87;;;4.30;89.70;;;;;;5112392;28;20294;-67
2021/04/15 05:38:50;;;;;;;11.03;6.33;;;4.40;89.70;;;;;;5112893;28;20297;-67
2021/04/15 05:41:32;;;;;;;8.73;5.67;;;4.40;89.60;;;;;;5112339;28;20323;-67
2021/04/15 05:44:04;;;;;;;13.73;6.33;;;4.40;89.40;;;;;;5111494;28;20297;-67
2021/04/15 05:46:51;;;;;;;11.48;6.05;;;4.50;89.40;;;;;;5112677;28;20354;-67
2021/04/15 05:49:24;;;;;;;8.97;5.93;;;4.50;89.40;;;;;;5112531;28;20071;-67
2021/04/15 05:52:21;;;;;;;10.53;7.00;;;4.60;89.60;;;;;;5111793;28;20377;-67
2021/04/15 05:54:48;;;;;;;11.90;6.70;;;4.60;89.50;;;;;;5112043;28;20320;-67
2021/04/15 05:57:16;;;;;;;12.53;6.33;;;4.70;89.40;;;;;;5111701;28;20298;-67
2021/04/15 06:00:17;;;;;;;10.50;6.77;;;4.80;89.40;;;;;;5112121;28;20376;-67
2021/04/15 06:03:00;;;;;;;11.13;6.53;;;4.90;89.50;;;;;;5112286;28;20294;-67
2021/04/15 06:05:35;;;;;;;11.27;5.83;;;5.10;89.80;;;;;;5111981;28;20289;-67
2021/04/15 06:08:07;;;;;;;9.13;6.50;;;5.30;89.80;;;;;;5111663;28;20305;-67
2021/04/15 06:10:35;;;;;;;12.23;7.77;;;5.50;89.50;;;;;;5112407;28;20297;-67
2021/04/15 06:13:28;;;;;;;9.30;6.10;;;5.80;89.20;;;;;;5110744;28;20387;-67
2021/04/15 06:16:02;;;;;;;9.00;5.90;;;6.00;88.20;;;;;;5111996;28;20298;-66
2021/04/15 06:18:42;;;;;;;12.13;6.10;;;6.00;87.40;;;;;;5111133;28;20730;-66
2021/04/15 06:21:20;;;;;;;8.97;5.63;;;5.90;87.40;;;;;;5111795;28;20297;-66
2021/04/15 06:23:53;;;;;;;9.60;5.73;;;5.90;87.70;;;;;;5111502;28;20327;-66
2021/04/15 06:26:39;;;;;;;13.03;6.10;;;6.00;87.40;;;;;;5111160;28;20289;-66
2021/04/15 06:29:11;;;;;;;11.10;5.50;;;6.10;87.20;;;;;;5111615;28;20728;-66
2021/04/15 06:31:40;;;;;;;11.90;6.13;;;6.00;86.90;;;;;;5111962;28;20293;-66
2021/04/15 06:34:07;;;;;;;9.67;4.83;;;6.00;87.00;;;;;;5110842;28;20305;-66
2021/04/15 06:36:45;;;;;;;9.53;4.90;;;6.00;87.20;;;;;;5111807;28;20296;-66
2021/04/15 06:39:35;;;;;;;13.20;4.67;;;6.10;87.40;;;;;;5111547;28;20297;-66
2021/04/15 06:42:25;;;;;;;11.10;4.57;;;6.20;87.40;;;;;;5110718;28;20304;-67
2021/04/15 06:45:22;;;;;;;10.23;4.97;;;6.40;87.10;;;;;;5109755;28;20308;-66
2021/04/15 06:48:16;;;;;;;9.77;4.70;;;6.50;86.60;;;;;;5108580;28;20304;-66
2021/04/15 06:51:10;;;;;;;11.13;4.57;;;6.50;86.30;;;;;;5108223;28;20289;-66
2021/04/15 06:54:13;;;;;;;9.50;4.33;;;6.50;86.20;;;;;;5102128;28;20347;-67
2021/04/15 06:57:12;;;;;;;10.97;5.90;;;6.60;85.90;;;;;;5092267;28;20342;-66
2021/04/15 06:59:56;;;;;;;10.43;4.73;;;6.70;85.70;;;;;;5111064;28;20300;-66
2021/04/15 07:02:56;;;;;;;9.90;4.77;;;6.70;85.40;;;;;;5108280;28;20403;-66
2021/04/15 07:05:29;;;;;;;10.13;5.10;;;6.70;85.40;;;;;;5112664;28;20297;-66
2021/04/15 07:08:32;;;;;;;10.97;5.97;;;6.60;85.90;;;;;;5114100;28;20298;-67
2021/04/15 07:11:42;;;;;;;13.53;5.20;;;6.60;86.30;;;;;;5113125;28;20745;-67
2021/04/15 07:14:29;;;;;;;9.00;5.23;;;6.90;86.40;;;;;;5113013;28;20316;-67
2021/04/15 07:17:32;;;;;;;10.33;5.17;;;6.90;85.80;;;;;;5113035;28;20301;-66
2021/04/15 07:20:33;;;;;;;11.87;4.83;;;6.80;85.50;;;;;;5113817;28;20319;-66
2021/04/15 07:23:25;;;;;;;11.80;5.20;;;6.80;85.40;;;;;;5087373;28;20300;-66
2021/04/15 07:26:11;;;;;;;6.93;4.47;;;6.90;86.50;;;;;;5113432;28;20639;-66
2021/04/15 07:29:06;;;;;;;12.50;5.43;;;7.30;86.50;;;;;;5115038;28;20043;-66
2021/04/15 07:32:04;;;;;;;8.63;4.23;;;7.50;85.20;;;;;;5104277;28;20305;-66
2021/04/15 07:34:59;;;;;;;12.40;5.50;;;7.70;84.90;;;;;;5103800;28;20306;-66
2021/04/15 07:37:57;;;;;;;11.50;4.77;;;7.80;85.10;;;;;;5114512;28;20289;-65
2021/04/15 07:40:45;;;;;;;7.07;3.97;;;8.00;83.40;;;;;;5115064;28;20358;-66
2021/04/15 07:43:20;;;;;;;10.37;4.37;;;8.10;83.50;;;;;;5113765;28;20332;-67
2021/04/15 07:46:28;;;;;;;9.03;3.77;;;8.10;83.40;;;;;;5114902;28;20401;-67
2021/04/15 07:49:06;;;;;;;9.83;3.80;;;8.20;83.80;;;;;;5114665;28;20769;-67
2021/04/15 07:51:44;;;;;;;10.90;4.63;;;8.40;83.00;;;;;;5114029;28;20770;-66
2021/04/15 07:54:24;;;;;;;9.80;4.20;;;8.30;81.70;;;;;;5114744;28;20313;-66
2021/04/15 07:57:11;;;;;;;10.47;4.37;;;8.20;82.00;;;;;;5113748;28;20324;-67
2021/04/15 07:59:57;;;;;;;11.90;4.43;;;8.30;81.30;;;;;;5114783;28;20301;-67
2021/04/15 08:02:36;;;;;;;13.40;4.37;;;8.50;81.10;;;;;;5114890;28;20301;-67
2021/04/15 08:05:13;;;;;;;6.37;3.97;;;8.90;81.00;;;;;;5113251;28;20691;-67
2021/04/15 08:07:59;;;;;;;13.47;3.83;;;9.30;79.70;;;;;;5114486;28;20328;-67
2021/04/15 08:11:00;;;;;;;9.00;4.47;;;9.60;78.50;;;;;;5114792;28;20289;-67
2021/04/15 08:13:57;;;;;;;8.02;3.92;;;10.10;77.50;;;;;;5113998;28;20305;-67
2021/04/15 08:16:39;;;;;;;10.37;4.57;;;10.20;75.70;;;;;;5114367;28;20127;-67
2021/04/15 08:19:42;;;;;;;10.60;5.93;;;10.10;75.60;;;;;;5113038;27;20122;-67
2021/04/15 08:22:55;;;;;;;10.57;5.00;;;10.10;75.60;;;;;;5113712;27;20382;-67
2021/04/15 08:25:24;;;;;;;11.17;5.43;;;10.60;73.80;;;;;;5057828;28;20132;-67
2021/04/15 08:28:05;;;;;;;9.93;5.47;;;10.90;74.70;;;;;;5114020;28;20100;-67
2021/04/15 08:31:00;;;;;;;7.38;5.38;;;10.90;73.40;;;;;;5114089;28;20047;-67
2021/04/15 08:33:53;;;;;;;11.40;5.97;;;10.90;71.50;;;;;;5112556;28;20044;-67
2021/04/15 08:36:51;;;;;;;8.90;4.73;;;11.00;70.70;;;;;;5113477;28;20517;-68
2021/04/15 08:39:37;;;;;;;7.00;3.83;;;10.70;71.50;;;;;;5112798;28;20051;-67
2021/04/15 08:42:20;;;;;;;10.00;3.73;;;10.60;71.20;;;;;;5113482;28;20131;-67
2021/04/15 08:45:03;;;;;;;7.83;3.43;;;10.80;68.80;;;;;;5113117;28;20043;-67
2021/04/15 08:47:51;;;;;;;10.73;4.27;;;11.00;68.40;;;;;;5113188;28;20112;-67
2021/04/15 08:50:35;;;;;;;7.97;3.77;;;11.10;67.80;;;;;;5113640;28;20131;-67
2021/04/15 08:53:41;;;;;;;5.97;2.53;;;11.20;67.30;;;;;;5110743;28;20089;-67
2021/04/15 08:56:14;;;;;;;8.60;2.77;;;11.40;65.50;;;;;;5111031;28;20055;-67
2021/04/15 08:59:10;;;;;;;7.67;3.27;;;11.60;67.20;;;;;;5111654;28;20096;-68
2021/04/15 09:01:46;;;;;;;5.13;2.20;;;11.70;64.30;;;;;;5110675;28;20644;-67
2021/04/15 09:04:32;;;;;;;5.47;2.00;;;11.90;62.80;;;;;;5110939;28;20073;-67
2021/04/15 09:07:10;;;;;;;5.83;2.60;;;12.10;63.10;;;;;;5111776;28;20075;-67
2021/04/15 09:09:55;;;;;;;4.20;2.33;;;12.10;61.30;;;;;;5113217;28;20496;-67
2021/04/15 09:12:51;;;;;;;7.00;2.93;;;12.10;61.00;;;;;;5113138;28;20079;-67
2021/04/15 09:15:26;;;;;;;5.27;2.90;;;12.20;61.30;;;;;;5111781;28;20047;-67
2021/04/15 09:18:01;;;;;;;6.73;2.50;;;11.80;61.50;;;;;;5112788;28;20515;-66
2021/04/15 09:20:41;;;;;;;4.23;2.03;;;11.60;60.40;;;;;;5113133;28;20055;-66
2021/04/15 09:23:31;;;;;;;6.53;2.40;;;11.50;59.40;;;;;;5111559;28;20109;-66
2021/04/15 09:26:18;;;;;;;4.23;1.90;;;11.10;59.20;;;;;;5103644;28;20124;-66
2021/04/15 09:29:07;;;;;;;5.30;1.90;;;11.10;58.20;;;;;;5111818;28;20040;-67
2021/04/15 09:31:53;;;;;;;5.77;2.33;;;11.40;55.30;;;;;;5112765;28;20055;-67
2021/04/15 09:34:43;;;;;;;5.67;1.93;;;11.70;57.40;;;;;;5112554;28;20104;-67
2021/04/15 09:37:21;;;;;;;3.77;1.77;;;11.80;53.80;;;;;;5111577;28;20063;-67
2021/04/15 09:40:01;;;;;;;4.47;1.60;;;11.80;55.30;;;;;;5112377;28;20491;-67
2021/04/15 09:42:54;;;;;;;7.03;2.80;;;11.70;52.30;;;;;;5112141;28;20094;-67
2021/04/15 09:45:39;;;;;;;4.23;1.70;;;11.80;53.80;;;;;;5112554;28;20047;-67
2021/04/15 09:48:20;;;;;;;1.90;1.13;;;12.10;52.20;;;;;;5111697;28;20051;-67
2021/04/15 09:51:03;;;;;;;3.83;1.27;;;12.20;50.60;;;;;;5111600;28;20055;-67
2021/04/15 09:53:47;;;;;;;3.67;1.40;;;11.90;47.70;;;;;;5112533;28;20040;-67
2021/04/15 09:56:40;;;;;;;3.00;1.50;;;11.80;47.30;;;;;;5111939;28;20123;-66
2021/04/15 09:59:33;;;;;;;3.60;1.30;;;11.70;46.20;;;;;;5111655;28;20092;-67
2021/04/15 10:02:15;;;;;;;3.97;1.47;;;11.60;47.60;;;;;;5111122;28;20040;-67
2021/04/15 10:04:56;;;;;;;4.73;1.67;;;11.40;45.30;;;;;;5110946;28;20523;-67
2021/04/15 10:07:33;;;;;;;4.33;2.00;;;11.20;47.10;;;;;;5111869;28;20043;-66
2021/04/15 10:10:32;;;;;;;3.50;1.77;;;11.00;47.70;;;;;;5109691;28;20048;-66
2021/04/15 10:13:29;;;;;;;5.83;2.10;;;10.70;46.90;;;;;;5111151;28;20048;-67
2021/04/15 10:15:57;;;;;;;2.73;1.83;;;10.30;47.30;;;;;;5110532;28;21115;-67
2021/04/15 10:18:43;;;;;;;4.97;2.10;;;10.10;49.20;;;;;;5108848;28;20063;-67
2021/04/15 10:21:14;;;;;;;2.57;1.57;;;10.10;49.10;;;;;;5110410;28;20043;-67
2021/04/15 10:23:46;;;;;;;3.22;1.88;;;10.20;48.70;;;;;;5111698;28;20530;-67
2021/04/15 10:26:27;;;;;;;3.50;1.65;;;10.30;47.90;;;;;;5110958;28;20047;-67
2021/04/15 10:29:14;;;;;;;5.50;2.17;;;10.40;47.30;;;;;;5111502;28;20078;-67
2021/04/15 10:31:58;;;;;;;2.13;1.80;;;10.40;46.20;;;;;;5110916;28;20051;-67
2021/04/15 10:35:03;;;;;;;6.20;2.10;;;10.40;47.00;;;;;;5111729;28;20051;-67
2021/04/15 10:37:46;;;;;;;3.20;1.73;;;10.60;45.40;;;;;;5110301;28;20064;-67
2021/04/15 10:40:24;;;;;;;4.27;2.30;;;10.60;46.30;;;;;;5110709;28;20044;-66
2021/04/15 10:43:07;;;;;;;5.03;1.87;;;10.50;46.40;;;;;;5111557;28;20075;-67
2021/04/15 10:46:00;;;;;;;3.33;1.60;;;10.50;45.20;;;;;;5111489;28;20489;-67
2021/04/15 10:48:36;;;;;;;4.00;1.80;;;10.40;44.90;;;;;;5111627;28;20326;-66
2021/04/15 10:51:32;;;;;;;2.97;1.70;;;10.40;45.80;;;;;;5110898;28;20657;-67
2021/04/15 10:54:06;;;;;;;3.83;1.40;;;10.40;44.80;;;;;;5106862;28;20348;-67
2021/04/15 10:56:44;;;;;;;1.93;1.30;;;10.50;44.40;;;;;;5111557;28;20054;-67
2021/04/15 10:59:33;;;;;;;4.57;1.33;;;10.50;42.60;;;;;;5111433;28;20293;-67
2021/04/15 11:02:15;;;;;;;3.47;1.30;;;10.60;42.90;;;;;;5110443;28;20048;-67
2021/04/15 11:04:41;;;;;;;3.20;1.50;;;10.70;41.30;;;;;;5111339;28;20289;-67
2021/04/15 11:07:10;;;;;;;2.63;1.13;;;10.80;42.80;;;;;;5110275;28;20353;-67
2021/04/15 11:09:39;;;;;;;1.73;1.20;;;10.90;42.70;;;;;;5111708;28;20047;-67
2021/04/15 11:12:13;;;;;;;2.83;1.33;;;11.00;42.50;;;;;;5110876;28;20126;-68
2021/04/15 11:14:45;;;;;;;2.63;1.50;;;11.00;40.60;;;;;;5110703;28;20134;-67
2021/04/15 11:17:44;;;;;;;4.68;1.15;;;11.00;41.10;;;;;;5110908;28;20058;-68
2021/04/15 11:20:19;;;;;;;2.57;1.40;;;11.00;40.70;;;;;;5110954;28;20047;-68
2021/04/15 11:23:02;;;;;;;2.53;1.30;;;11.00;41.00;;;;;;5110147;28;20312;-68
2021/04/15 11:25:33;;;;;;;1.90;1.40;;;11.10;38.30;;;;;;5111397;28;20051;-68
2021/04/15 11:28:20;;;;;;;4.00;1.48;;;11.10;40.00;;;;;;5109967;28;20126;-67
2021/04/15 11:30:49;;;;;;;4.03;1.67;;;11.10;40.30;;;;;;5111084;28;20078;-67
2021/04/15 11:33:39;;;;;;;3.33;1.70;;;11.20;40.80;;;;;;5110842;28;20050;-67
2021/04/15 11:36:37;;;;;;;3.67;1.33;;;11.20;39.50;;;;;;5110097;28;20055;-67
2021/04/15 11:39:06;;;;;;;2.30;1.40;;;11.30;40.60;;;;;;5110537;28;20093;-67
2021/04/15 11:41:46;;;;;;;2.17;1.30;;;11.30;38.50;;;;;;5111061;28;20044;-67
2021/04/15 11:44:24;;;;;;;2.67;1.20;;;11.50;38.80;;;;;;5109755;28;20052;-67
2021/04/15 11:46:53;;;;;;;2.07;1.03;;;11.50;37.70;;;;;;5110645;28;20059;-67
2021/04/15 11:49:19;;;;;;;3.20;1.10;;;11.50;37.40;;;;;;5111718;28;20424;-67
2021/04/15 11:51:57;;;;;;;1.43;0.90;;;11.40;37.90;;;;;;5114350;28;20043;-67
2021/04/15 11:54:34;;;;;;;3.57;1.60;;;11.50;37.30;;;;;;5114511;28;20051;-67
2021/04/15 11:57:18;;;;;;;4.07;1.43;;;11.60;37.70;;;;;;5113193;28;20513;-67
2021/04/15 12:00:05;;;;;;;4.17;1.50;;;11.70;39.80;;;;;;5114337;28;20122;-68
2021/04/15 12:02:38;;;;;;;2.83;1.27;;;11.70;37.40;;;;;;5114447;28;20062;-67
2021/04/15 12:05:30;;;;;;;4.63;1.60;;;11.90;38.20;;;;;;5113291;28;20122;-67
2021/04/15 12:08:19;;;;;;;4.18;1.27;;;11.90;37.70;;;;;;5114151;28;20078;-67
2021/04/15 12:11:15;;;;;;;6.20;1.50;;;11.90;38.20;;;;;;5113193;28;20048;-67
2021/04/15 12:13:43;;;;;;;3.83;1.80;;;11.90;38.60;;;;;;5113750;28;20083;-68
2021/04/15 12:16:48;;;;;;;3.67;1.43;;;12.00;38.50;;;;;;5113621;28;20171;-67
2021/04/15 12:19:42;;;;;;;3.50;1.10;;;12.00;37.60;;;;;;5112892;28;20044;-67
2021/04/15 12:22:29;;;;;;;2.23;1.60;;;11.90;35.10;;;;;;5113619;28;20453;-67
2021/04/15 12:25:31;;;;;;;6.07;2.40;;;11.90;37.20;;;;;;5113010;28;20101;-67
2021/04/15 12:28:34;;;;;;;5.13;2.50;;;11.90;40.60;;;;;;5080614;28;20408;-67
2021/04/15 12:31:19;;;;;;;4.40;2.50;;;11.80;41.10;;;;;;5113355;28;20048;-67
2021/04/15 12:34:23;;;;;;;3.80;2.20;;;11.50;41.70;;;;;;5113489;28;20052;-67
2021/04/15 12:37:25;;;;;;;4.63;2.43;;;11.30;43.10;;;;;;5113262;27;20043;-67
2021/04/15 12:39:54;;;;;;;;;;;11.10;42.90;;;;;;5112781;28;20122;-67
2021/04/15 12:42:25;;;;;;;4.70;2.10;;;11.00;42.50;;;;;;5113235;28;20361;-67
2021/04/15 12:44:54;;;;;;;4.65;2.50;;;10.90;42.20;;;;;;5113021;28;20039;-67
2021/04/15 12:47:21;;;;;;;6.37;2.50;;;10.90;42.90;;;;;;5112713;28;20057;-67
2021/04/15 12:49:47;;;;;;;4.83;2.10;;;10.80;43.30;;;;;;5113376;28;20063;-67
2021/04/15 12:52:14;;;;;;;6.77;2.33;;;10.80;43.40;;;;;;5112570;28;20350;-67
2021/04/15 12:54:43;;;;;;;3.97;2.10;;;10.70;42.80;;;;;;5113456;28;20051;-66
2021/04/15 12:57:14;;;;;;;3.57;1.90;;;10.70;43.50;;;;;;5113192;28;20051;-66
2021/04/15 12:59:51;;;;;;;4.47;2.15;;;10.60;42.50;;;;;;5112453;28;20052;-67
2021/04/15 13:02:24;;;;;;;5.00;2.77;;;10.60;43.30;;;;;;5112933;28;20047;-66
2021/04/15 13:05:00;;;;;;;4.47;2.00;;;10.50;44.30;;;;;;5112949;28;20048;-66
2021/04/15 13:07:25;;;;;;;5.20;2.47;;;10.50;44.90;;;;;;5112573;28;20155;-66
2021/04/15 13:10:12;;;;;;;7.67;2.80;;;10.40;45.70;;;;;;5112839;28;20308;-66
2021/04/15 13:13:05;;;;;;;6.00;2.90;;;10.40;46.20;;;;;;5112836;28;20048;-66
2021/04/15 13:15:30;;;;;;;5.93;3.03;;;10.40;46.10;;;;;;5108944;28;20382;-66
2021/04/15 13:17:57;;;;;;;6.20;3.50;;;10.40;47.20;;;;;;5112307;28;20766;-66
2021/04/15 13:20:22;;;;;;;5.37;3.10;;;10.30;47.10;;;;;;5112065;28;20082;-65
2021/04/15 13:23:06;;;;;;;3.93;2.60;;;10.30;47.70;;;;;;5112297;28;20778;-67
2021/04/15 13:25:33;;;;;;;8.63;2.80;;;10.40;47.80;;;;;;5113108;28;20059;-67
2021/04/15 13:28:04;;;;;;;6.87;2.90;;;10.30;47.90;;;;;;5111495;28;20303;-66
2021/04/15 13:30:52;;;;;;;6.13;2.93;;;10.30;48.40;;;;;;5112655;28;20062;-66
2021/04/15 13:33:22;;;;;;;4.63;2.70;;;10.20;48.80;;;;;;5111730;28;20297;-66
2021/04/15 13:36:00;;;;;;;4.07;2.40;;;10.10;48.80;;;;;;5109240;28;20384;-66
2021/04/15 13:41:22;;;;;;;6.13;2.78;;;10.10;49.00;;;;;;5111742;28;20318;-67
2021/04/15 13:43:52;;;;;;;5.23;2.97;;;10.10;49.00;;;;;;5109099;28;20051;-66
2021/04/15 13:46:24;;;;;;;7.50;3.17;;;10.10;49.10;;;;;;5111603;28;20297;-66
2021/04/15 13:49:03;;;;;;;;;;;10.10;48.80;;;;;;5111636;28;20302;-67
2021/04/15 13:51:37;;;;;;;8.23;3.00;;;10.10;48.90;;;;;;5111367;28;20363;-66
2021/04/15 13:54:05;;;;;;;5.57;2.73;;;10.20;49.00;;;;;;5110365;28;20313;-66
2021/04/15 13:56:37;;;;;;;5.60;2.83;;;10.30;48.90;;;;;;5111702;28;20318;-67
2021/04/15 13:59:24;;;;;;;3.92;2.22;;;10.30;49.10;;;;;;5111783;28;20297;-67
2021/04/15 14:01:50;;;;;;;4.53;2.53;;;10.30;49.70;;;;;;5110305;28;20047;-67